Sierra Nevada Aquatic Research Lab (SNARL) Reserve, California Weather observations

Data are for 10 minute period ending at time listed.
 Day   Time   Solar   Ave.   Ave.  Ave.  Vector  Max.   Baro.   Total    
  of    of     Rad.   Air    Rel.  Wind   Wind   Wind  Press.  Precip.   
Year   Day            Temp.  Hum.  Speed  Dir.   Gust                    
2016   (PST)  Kw/m2    F      %     mph   deg.    mph    mb.     in.     
-------------------------------------------------------------------------
 242   16:50   0.32   77.7    18   13.1   218    22.0   789.0    0.00 
 242   17:00   0.26   77.5    18   13.8   220    23.5   789.1    0.00 
 242   17:10   0.11   76.5    19   14.7   218    24.1   789.1    0.00 
 242   17:20   0.07   75.3    19   14.1   221    22.1   789.1    0.00 
 242   17:30   0.05   74.5    20   12.0   224    20.8   789.1    0.00 
 242   17:40   0.04   74.1    20   16.4   217    23.3   789.0    0.00 
 242   17:50   0.05   73.9    20   17.2   213    26.2   788.9    0.00 
 242   18:00   0.08   74.2    20   18.2   214    25.1   788.9    0.00 
 242   18:10   0.05   73.7    20   18.3   216    26.5   788.9    0.00 
 242   18:20   0.03   73.1    20   17.1   215    25.6   788.9    0.00 
 242   18:30   0.01   72.9    20   17.8   221    26.2   789.0    0.00 
 242   18:40   0.01   72.9    20   18.6   216    27.3   789.0    0.00 
 242   18:50   0.00   72.6    20   15.4   216    23.7   789.0    0.00 
 242   19:00   0.00   72.4    20   15.3   215    21.9   789.1    0.00 
 242   19:10   0.00   72.0    20   13.2   220    22.6   789.1    0.00 
 242   19:20   0.00   71.7    20   15.8   218    23.5   789.1    0.00 
 242   19:30   0.00   71.4    20   16.5   217    24.8   789.1    0.00 
 242   19:40   0.00   71.0    20   14.9   215    22.8   789.2    0.00 
 242   19:50   0.00   70.9    20   14.4   215    21.8   789.3    0.00 
 242   20:00   0.00   70.4    20   13.7   220    20.5   789.4    0.00 
 242   20:10   0.00   70.7    20   14.3   212    20.6   789.5    0.00 
 242   20:20   0.00   70.3    19   14.5   211    21.4   789.5    0.00 
 242   20:30   0.00   70.0    19   13.2   213    19.1   789.5    0.00 
 242   20:40   0.00   70.0    18   13.8   209    19.5   789.5    0.00 
 242   20:50   0.00   69.3    19    9.1   195    13.4   789.6    0.00 
 242   21:00   0.00   68.9    18   11.2   201    18.7   789.6    0.00 
 242   21:10   0.00   68.9    19    8.0   196    13.6   789.7    0.00 
 242   21:20   0.00   67.5    20    6.7   207    15.3   789.7    0.00 
 242   21:30   0.00   65.3    24    2.0    68     7.1   789.8    0.00 
 242   21:40   0.00   61.6    26    2.6   114     4.6   789.8    0.00 
 242   21:50   0.00   59.5    29    0.9   349     3.0   789.8    0.00 
 242   22:00   0.00   57.5    30    1.2    74     2.7   789.9    0.00 
 242   22:10   0.00   56.9    33    1.5     2     3.9   790.0    0.00 
 242   22:20   0.00   55.1    33    2.5   297     4.4   790.2    0.00 
 242   22:30   0.00   54.9    32    3.2   251     7.2   790.2    0.00 
 242   22:40   0.00   54.5    32    2.3   265     4.2   790.2    0.00 
 242   22:50   0.00   53.4    34    1.4   291     3.3   790.2    0.00 
 242   23:00   0.00   52.2    34    2.6   288     5.1   790.3    0.00 
 242   23:10   0.00   51.2    35    1.8   258     4.7   790.4    0.00 
 242   23:20   0.00   51.0    35    2.4   240     4.3   790.4    0.00 
 242   23:30   0.00   51.1    36    2.7   246     6.5   790.4    0.00 
 242   23:40   0.00   50.0    34    3.1   233     5.2   790.4    0.00 
 242   23:50   0.00   49.4    36    3.1   247     5.3   790.4    0.00 
 243    0:00   0.00   49.8    37    1.6   276     3.7   790.4    0.00 
 243    0:10   0.00   49.2    39    1.8   287     3.3   790.3    0.00 
 243    0:20   0.00   48.5    38    0.9   305     3.4   790.3    0.00 
 243    0:30   0.00   47.7    38    0.4   140     2.5   790.2    0.00 
 243    0:40   0.00   47.7    38    2.7   240     5.0   790.2    0.00 
 243    0:50   0.00   46.4    37    1.8   222     3.9   790.1    0.00 
 243    1:00   0.00   46.4    40    1.5   220     2.6   790.1    0.00 
 243    1:10   0.00   47.1    38    2.1   240     3.4   790.1    0.00 
 243    1:20   0.00   47.0    37    1.5   197     3.0   790.1    0.00 
 243    1:30   0.00   47.6    38    1.1   203     2.6   790.1    0.00 
 243    1:40   0.00   47.2    36    2.5   222     4.5   790.0    0.00 
 243    1:50   0.00   46.8    36    1.9   260     4.8   789.9    0.00 
 243    2:00   0.00   46.9    39    0.3   298     3.8   790.0    0.00 
 243    2:10   0.00   45.3    40    2.8   242     6.7   789.9    0.00 
 243    2:20   0.00   44.5    40    2.1   265     4.2   789.9    0.00 
 243    2:30   0.00   43.9    46    0.9   329     3.5   789.9    0.00 
 243    2:40   0.00   43.3    45    1.9   260     3.3   789.9    0.00 
 243    2:50   0.00   43.5    48    1.4   306     4.1   789.9    0.00 
 243    3:00   0.00   43.2    45    1.5   200     3.4   789.8    0.00 
 243    3:10   0.00   43.4    44    2.3   260     4.5   789.7    0.00 
 243    3:20   0.00   43.9    45    2.7   260     4.7   789.7    0.00 
 243    3:30   0.00   45.0    43    2.9   310     5.0   789.7    0.00 
 243    3:40   0.00   42.7    47    2.2   272     4.8   789.6    0.00 
 243    3:50   0.00   42.7    45    2.7   273     5.0   789.6    0.00 
 243    4:00   0.00   42.6    46    1.6   283     3.6   789.6    0.00 
 243    4:10   0.00   42.1    48    1.6   318     3.4   789.5    0.00 
 243    4:20   0.00   42.6    45    4.3   240     8.5   789.4    0.00 
 243    4:30   0.00   43.9    46    1.3   258     3.8   789.4    0.00 
 243    4:40   0.00   43.6    49    1.3    12     3.8   789.4    0.00 
 243    4:50   0.00   43.3    49    1.0    99     2.7   789.4    0.00 
 243    5:00   0.00   42.1    50    1.9   268     3.9   789.5    0.00 
 243    5:10   0.00   41.9    56    2.1   310     4.5   789.5    0.00 
 243    5:20   0.00   41.0    53    1.1   225     2.2   789.4    0.00 
 243    5:30   0.00   40.3    51    1.4   247     5.4   789.4    0.00 
 243    5:40   0.00   41.0    51    2.5   282     4.7   789.5    0.00 
 243    5:50   0.04   42.6    49    1.1   298     2.9   789.5    0.00 
 243    6:00   0.06   43.6    51    1.2   316     3.3   789.6    0.00 
 243    6:10   0.06   44.9    50    1.8   290     5.0   789.6    0.00 
 243    6:20   0.12   45.7    50    1.6   259     3.4   789.6    0.00 
 243    6:30   0.19   50.6    42    0.5   355     2.5   789.6    0.00 
 243    6:40   0.21   54.4    39    2.3   331     5.3   789.6    0.00 
 243    6:50   0.10   55.5    39    2.2   293     4.3   789.7    0.00 
 243    7:00   0.11   55.6    40    2.4   289     3.8   789.6    0.00 
 243    7:10   0.23   56.0    40    2.2   294     3.9   789.6    0.00 
 243    7:20   0.35   61.4    34    2.0    56     3.7   789.6    0.00 
 243    7:30   0.40   64.5    27    1.5   354     4.2   789.5    0.00 
 243    7:40   0.44   67.5    24    2.2   325     5.7   789.4    0.00 
 243    7:50   0.45   67.4    24    1.9    13     5.5   789.3    0.00 
 243    8:00   0.50   67.4    31    3.0    53     7.5   789.2    0.00 
 243    8:10   0.40   66.9    32    2.1    55     6.2   789.1    0.00 
 243    8:20   0.48   66.7    30    4.2    67     8.7   789.0    0.00 
 243    8:30   0.53   67.4    30    3.2    60     5.0   789.0    0.00 
 243    8:40   0.61   69.7    27    3.0    50     5.7   789.0    0.00 
 243    8:50   0.64   71.5    25    4.5    77     7.1   788.9    0.00 
 243    9:00   0.67   73.0    21    2.6    70     5.6   789.0    0.00 
 243    9:10   0.69   75.0    21    2.5    73     5.6   788.9    0.00 
 243    9:20   0.71   76.2    20    2.7    58     6.4   789.0    0.00 
 243    9:30   0.74   77.3    19    3.3    49     6.1   789.0    0.00 
 243    9:40   0.76   78.2    19    3.5    71     8.0   789.0    0.00 
 243    9:50   0.78   79.1    17    3.3    77     7.8   789.1    0.00 
 243   10:00   0.80   78.8    17    2.3    57     4.8   789.1    0.00 
 243   10:10   0.82   79.7    16    6.7   250    14.0   789.0    0.00 
 243   10:20   0.59   79.4    16    8.3   251    19.9   789.1    0.00 
 243   10:30   0.85   79.7    16    5.8   111    13.3   789.0    0.00 
 243   10:40   0.86   79.3    16    5.4   130    13.4   789.0    0.00 
 243   10:50   0.88   80.5    15    9.8   130    19.3   788.9    0.00 
 243   11:00   0.90   79.8    14    9.7   132    19.5   788.8    0.00 
 243   11:10   0.91   80.9    14   14.9   139    25.0   788.7    0.00 
 243   11:20   0.92   80.9    13   12.8   131    26.1   788.5    0.00 
 243   11:30   0.93   81.3    13   11.2   128    23.2   788.5    0.00 
 243   11:40   0.93   82.3    13   10.9   137    22.2   788.4    0.00 
 243   11:50   0.94   82.0    13    9.6   147    21.6   788.3    0.00 
 243   12:00   0.93   81.6    13   11.0   156    22.2   788.2    0.00 
 243   12:10   0.93   82.1    13   12.1   150    26.0   788.2    0.00 
 243   12:20   0.93   81.3    14    5.9   223    12.3   788.1    0.00 
 243   12:30   0.92   81.7    13    9.2   205    18.6   788.1    0.00 
 243   12:40   0.91   81.6    14   11.1   235    23.9   788.0    0.00 
 243   12:50   0.91   81.8    14    8.1   235    18.4   787.9    0.00 
 243   13:00   0.84   81.9    14   11.5   232    20.5   787.9    0.00 
 243   13:10   0.82   81.5    14    8.9   207    17.2   787.8    0.00 
 243   13:20   0.89   82.3    13    8.4   177    19.1   787.7    0.00 
 243   13:30   0.89   82.0    13    9.9   145    24.1   787.5    0.00 
 243   13:40   0.76   81.9    14    7.8   197    18.0   787.5    0.00 
 243   13:50   0.24   80.1    14   12.2   212    24.0   787.4    0.00 
 243   14:00   0.15   77.7    16   11.5   231    21.6   787.3    0.00 
 243   14:10   0.18   77.0    16   10.0   237    21.3   787.3    0.00 
 243   14:20   0.14   76.6    16    8.8   246    18.1   787.1    0.00 
 243   14:30   0.15   76.3    16   12.6   226    26.1   787.1    0.00 
 243   14:40   0.16   76.4    16   11.5   237    20.5   787.0    0.00 
 243   14:50   0.15   76.3    16   13.0   244    21.1   787.0    0.00 
 243   15:00   0.12   76.1    17    9.3   230    17.5   786.9    0.00 
 243   15:10   0.10   75.9    16   15.1   224    22.9   786.8    0.00 
 243   15:20   0.10   76.0    17   16.2   228    26.7   786.8    0.00 
 243   15:30   0.07   75.6    17   15.5   242    24.8   786.7    0.00 
 243   15:40   0.07   75.4    18    7.9   254    19.2   786.6    0.00 
 243   15:50   0.07   75.1    18   10.8   231    19.4   786.6    0.00 
 243   16:00   0.07   75.3    18    9.8   214    17.8   786.5    0.00 
 243   16:10   0.07   75.3    18   13.5   231    24.0   786.5    0.00 
 243   16:20   0.06   75.0    19   12.7   236    19.2   786.4    0.00 
 243   16:30   0.08   75.0    19   13.1   239    21.5   786.4    0.00 
 243   16:40   0.13   75.7    19   15.6   241    23.2   786.3    0.00 

Return to SNARL Reserve graphs page.


Western Regional Climate Center,wrcc@dri.edu